Time;durP1;ratioP1;P1;durP2;ratioP2;P2;SDS_P1;SDS_P2;PMS_P1;PMS_P2;Temp;Humidity;BMP_temperature;BMP_pressure;BME280_temperature;BME280_humidity;BME280_pressure;Samples;Min_cycle;Max_cycle;Signal;HPM_P1;HPM_P2
2022/11/23 00:01:16;;;;;;;;;7.50;4.25;;;;;8.29;63.62;99538.47;6340193;22;45382;-60
2022/11/23 00:03:43;;;;;;;;;12.75;6.50;;;;;8.25;63.61;99535.94;6341954;22;45956;-60
2022/11/23 00:06:08;;;;;;;;;5.75;3.00;;;;;8.18;63.80;99521.31;6340004;22;45185;-60
2022/11/23 00:08:34;;;;;;;;;5.75;5.00;;;;;8.21;63.71;99527.31;6341810;22;45738;-64
2022/11/23 00:11:00;;;;;;;;;7.50;4.50;;;;;8.17;63.91;99525.66;6341663;22;45427;-61
2022/11/23 00:13:25;;;;;;;;;11.00;7.00;;;;;8.16;64.03;99516.09;6342011;22;46100;-61
2022/11/23 00:15:51;;;;;;;;;6.75;5.25;;;;;8.13;63.96;99516.19;6342020;22;45269;-62
2022/11/23 00:18:16;;;;;;;;;6.50;5.50;;;;;8.13;64.03;99513.56;6342104;22;45403;-63
2022/11/23 00:20:41;;;;;;;;;12.50;10.00;;;;;8.09;64.33;99499.69;6342029;22;46151;-61
2022/11/23 00:23:08;;;;;;;;;11.25;6.00;;;;;8.12;63.79;99503.97;6340954;22;45253;-60
2022/11/23 00:25:34;;;;;;;;;13.50;11.25;;;;;8.13;63.97;99509.16;6342109;22;45253;-60
2022/11/23 00:27:59;;;;;;;;;12.75;9.50;;;;;8.09;64.28;99504.91;6341919;22;45269;-60
2022/11/23 00:30:24;;;;;;;;;14.25;10.00;;;;;8.11;64.00;99508.38;6339351;22;45235;-60
2022/11/23 00:32:50;;;;;;;;;11.00;10.00;;;;;8.05;64.05;99503.28;6341765;22;45963;-61
2022/11/23 00:35:15;;;;;;;;;10.75;9.00;;;;;8.03;64.21;99506.81;6341725;22;45336;-60
2022/11/23 00:37:40;;;;;;;;;13.25;10.25;;;;;8.06;64.04;99506.75;6342216;22;45187;-60
2022/11/23 00:40:06;;;;;;;;;10.75;7.00;;;;;8.04;64.16;99504.16;6341579;22;45237;-61
2022/11/23 00:42:31;;;;;;;;;6.50;5.50;;;;;8.02;64.35;99505.09;6341119;22;45941;-60
2022/11/23 00:44:57;;;;;;;;;10.75;6.50;;;;;8.07;64.10;99509.31;6342275;22;45296;-60
2022/11/23 00:47:22;;;;;;;;;5.25;4.25;;;;;8.00;64.41;99506.88;6342066;22;45249;-60
2022/11/23 00:49:47;;;;;;;;;10.25;6.25;;;;;8.02;64.32;99503.34;6341095;22;45528;-60
2022/11/23 00:52:13;;;;;;;;;6.75;5.00;;;;;8.03;64.44;99499.81;6341933;22;45204;-60
2022/11/23 00:54:38;;;;;;;;;6.50;4.00;;;;;8.03;64.22;99502.44;6342031;22;45203;-60
2022/11/23 00:57:03;;;;;;;;;6.00;4.50;;;;;7.97;64.56;99495.59;6341724;22;47736;-61
2022/11/23 00:59:28;;;;;;;;;10.50;6.50;;;;;7.97;64.66;99492.13;6341784;22;45270;-61
2022/11/23 01:01:54;;;;;;;;;6.50;6.00;;;;;7.99;64.50;99490.34;6341083;22;55687;-60
2022/11/23 01:04:19;;;;;;;;;6.25;5.75;;;;;7.95;64.47;99493.94;6341909;22;45878;-60
2022/11/23 01:06:44;;;;;;;;;10.25;7.50;;;;;7.97;64.65;99494.72;6342084;22;45181;-60
2022/11/23 01:09:13;;;;;;;;;8.25;6.25;;;;;7.95;64.52;99491.31;6341620;22;45199;-60
2022/11/23 01:11:38;;;;;;;;;5.75;5.00;;;;;7.95;64.52;99496.53;6341405;22;46987;-60
2022/11/23 01:14:04;;;;;;;;;6.75;5.50;;;;;7.92;64.51;99494.84;6341442;22;45269;-60
2022/11/23 01:16:32;;;;;;;;;5.25;4.25;;;;;7.93;64.66;99495.72;6341362;22;45208;-60
2022/11/23 01:19:03;;;;;;;;;15.00;5.50;;;;;7.93;64.61;99491.31;6341308;22;45537;-60
2022/11/23 01:21:30;;;;;;;;;4.25;4.25;;;;;7.91;64.53;99492.25;6341689;22;45290;-60
2022/11/23 01:23:56;;;;;;;;;7.00;5.00;;;;;7.87;64.71;99488.84;6341422;22;45269;-60
2022/11/23 01:26:22;;;;;;;;;6.00;6.00;;;;;7.88;64.82;99484.50;6340023;22;45342;-60
2022/11/23 01:28:48;;;;;;;;;5.25;5.00;;;;;7.86;64.84;99479.31;6341748;22;45347;-60
2022/11/23 01:31:19;;;;;;;;;11.00;6.00;;;;;7.84;64.72;99477.63;6341332;22;46053;-60
2022/11/23 01:33:45;;;;;;;;;8.00;5.00;;;;;7.78;65.03;99468.16;6340949;22;45361;-60
2022/11/23 01:36:13;;;;;;;;;6.00;6.00;;;;;7.80;64.91;99469.81;6341899;22;45248;-60
2022/11/23 01:38:39;;;;;;;;;2.25;2.25;;;;;7.76;64.89;99460.34;6341378;22;45277;-60
2022/11/23 01:41:06;;;;;;;;;5.00;4.00;;;;;7.77;65.32;99462.06;6340847;22;45311;-60
2022/11/23 01:43:32;;;;;;;;;6.50;5.00;;;;;7.78;65.07;99463.75;6341621;22;45256;-60
2022/11/23 01:45:59;;;;;;;;;5.50;5.25;;;;;7.81;65.02;99461.09;6342108;22;45183;-60
2022/11/23 01:48:31;;;;;;;;;6.25;5.00;;;;;7.84;65.04;99459.31;6340899;22;45255;-60
2022/11/23 01:50:59;;;;;;;;;9.75;4.75;;;;;7.84;64.88;99448.84;6341886;22;45153;-60
2022/11/23 01:53:27;;;;;;;;;6.25;6.25;;;;;7.90;65.13;99448.69;6341164;22;45278;-60
2022/11/23 01:55:56;;;;;;;;;7.00;6.00;;;;;7.90;65.12;99443.44;6342003;22;45246;-60
2022/11/23 01:58:24;;;;;;;;;9.75;6.00;;;;;7.94;65.17;99450.34;6341252;22;45103;-60
2022/11/23 02:00:50;;;;;;;;;4.50;2.50;;;;;7.93;64.92;99444.25;6341190;22;47050;-60
2022/11/23 02:03:16;;;;;;;;;6.00;5.00;;;;;7.98;64.87;99439.75;6341129;22;45238;-60
2022/11/23 02:05:46;;;;;;;;;7.25;6.50;;;;;8.01;65.22;99437.97;6342076;22;45317;-60
2022/11/23 02:08:13;;;;;;;;;7.50;5.00;;;;;8.01;64.94;99440.59;6341362;22;45397;-60
2022/11/23 02:10:39;;;;;;;;;7.50;5.25;;;;;8.03;64.94;99439.66;6339753;22;45256;-60
2022/11/23 02:13:06;;;;;;;;;11.75;10.00;;;;;8.05;65.02;99437.88;6341459;22;45289;-60
2022/11/23 02:15:34;;;;;;;;;14.00;10.00;;;;;8.06;64.99;99434.34;6341495;22;45452;-60
2022/11/23 02:18:03;;;;;;;;;12.00;9.00;;;;;8.08;65.21;99432.53;6340537;22;45178;-60
2022/11/23 02:20:29;;;;;;;;;6.00;6.00;;;;;8.12;65.09;99423.72;6341033;22;45325;-61
2022/11/23 02:23:03;;;;;;;;;7.25;6.25;;;;;8.14;64.95;99428.94;6341695;22;45230;-60
2022/11/23 02:25:42;;;;;;;;;9.75;3.00;;;;;8.17;65.13;99428.84;6341928;22;45411;-60
2022/11/23 02:28:14;;;;;;;;;8.25;4.25;;;;;8.14;64.90;99419.31;6339101;22;45283;-60
2022/11/23 02:30:41;;;;;;;;;5.50;5.50;;;;;8.19;65.12;99426.16;6341433;22;46019;-60
2022/11/23 02:33:06;;;;;;;;;16.00;6.75;;;;;8.17;65.29;99431.44;6340684;22;45267;-60
2022/11/23 02:35:32;;;;;;;;;9.00;5.50;;;;;8.18;64.99;99433.19;6339649;22;45435;-60
2022/11/23 02:37:59;;;;;;;;;12.75;7.75;;;;;8.19;65.08;99426.16;6341395;22;45413;-60
2022/11/23 02:40:30;;;;;;;;;11.25;7.25;;;;;8.23;65.14;99425.22;6341127;22;46836;-60
2022/11/23 02:42:55;;;;;;;;;12.50;6.00;;;;;8.26;65.17;99420.78;6340732;22;45308;-60
2022/11/23 02:45:34;;;;;;;;;5.75;4.75;;;;;8.24;65.21;99416.47;6341336;22;45381;-61
2022/11/23 02:48:00;;;;;;;;;6.75;6.75;;;;;8.30;65.13;99416.28;6341242;22;45175;-60
2022/11/23 02:50:25;;;;;;;;;7.50;5.00;;;;;8.28;65.12;99410.25;6339095;22;46983;-60
2022/11/23 02:52:51;;;;;;;;;6.25;5.50;;;;;8.31;65.18;99407.53;6341362;22;45150;-60
2022/11/23 02:55:16;;;;;;;;;7.00;5.50;;;;;8.29;65.08;99409.34;6341585;22;45403;-60
2022/11/23 02:57:41;;;;;;;;;5.25;4.00;;;;;8.33;65.43;99399.63;6341083;22;45479;-60
2022/11/23 03:00:07;;;;;;;;;6.50;4.25;;;;;8.34;65.11;99402.25;6340979;22;52147;-60
2022/11/23 03:02:33;;;;;;;;;7.00;5.75;;;;;8.35;65.26;99398.72;6341149;22;45337;-60
2022/11/23 03:04:58;;;;;;;;;5.00;4.00;;;;;8.36;65.37;99399.56;6341396;22;45655;-60
2022/11/23 03:07:23;;;;;;;;;6.00;6.00;;;;;8.32;65.31;99390.94;6341027;22;50266;-60
2022/11/23 03:09:49;;;;;;;;;7.25;3.75;;;;;8.29;64.94;99384.03;6341066;22;45308;-60
2022/11/23 03:12:15;;;;;;;;;6.75;4.75;;;;;8.35;64.93;99387.38;6339114;22;45557;-60
2022/11/23 03:14:40;;;;;;;;;5.50;5.00;;;;;8.35;65.18;99392.63;6341022;22;45218;-60
2022/11/23 03:17:06;;;;;;;;;3.50;2.50;;;;;8.34;65.07;99383.91;6341070;22;45368;-60
2022/11/23 03:19:31;;;;;;;;;6.00;4.50;;;;;8.30;65.29;99379.66;6341037;22;46340;-60
2022/11/23 03:21:56;;;;;;;;;6.75;5.00;;;;;8.25;65.60;99376.28;6341192;22;45238;-60
2022/11/23 03:24:21;;;;;;;;;5.50;4.00;;;;;8.19;65.22;99364.25;6341173;22;45340;-60
2022/11/23 03:26:47;;;;;;;;;6.75;4.75;;;;;8.23;65.53;99375.50;6341038;22;45409;-60
2022/11/23 03:29:12;;;;;;;;;3.00;3.00;;;;;8.23;65.36;99362.41;6340746;22;46103;-60
2022/11/23 03:31:37;;;;;;;;;3.00;3.00;;;;;8.20;65.35;99379.06;6340489;22;45306;-60
2022/11/23 03:34:03;;;;;;;;;5.00;4.00;;;;;8.21;65.34;99366.81;6339102;22;45282;-60
2022/11/23 03:36:28;;;;;;;;;4.00;2.00;;;;;8.13;65.17;99362.63;6340918;22;49899;-60
2022/11/23 03:38:53;;;;;;;;;6.00;4.25;;;;;8.07;65.28;99365.41;6340513;22;45100;-60
2022/11/23 03:41:19;;;;;;;;;6.75;4.00;;;;;8.02;65.71;99366.44;6340352;22;45238;-60
2022/11/23 03:43:44;;;;;;;;;5.50;4.00;;;;;7.97;65.82;99356.06;6341235;22;45421;-60
2022/11/23 03:46:09;;;;;;;;;7.50;5.50;;;;;8.03;65.79;99355.94;6340357;22;45438;-60
2022/11/23 03:48:35;;;;;;;;;6.25;5.75;;;;;7.96;65.38;99344.78;6339866;22;46513;-60
2022/11/23 03:51:00;;;;;;;;;6.50;4.25;;;;;7.98;65.83;99349.94;6340578;22;49430;-60
2022/11/23 03:53:25;;;;;;;;;6.25;5.75;;;;;8.02;65.78;99348.13;6340770;22;47730;-60
2022/11/23 03:55:53;;;;;;;;;7.50;5.25;;;;;8.00;65.73;99350.78;6340856;22;45486;-60
2022/11/23 03:58:19;;;;;;;;;5.50;3.50;;;;;7.93;66.25;99349.22;6339828;22;46414;-60
2022/11/23 04:00:44;;;;;;;;;7.75;4.00;;;;;7.97;66.04;99353.47;6340555;22;45261;-60
2022/11/23 04:03:09;;;;;;;;;6.50;5.00;;;;;7.93;65.99;99350.06;6340581;22;45199;-61
2022/11/23 04:05:34;;;;;;;;;9.25;8.00;;;;;7.90;66.21;99349.28;6341363;22;45423;-60
2022/11/23 04:08:00;;;;;;;;;9.75;6.00;;;;;7.86;66.35;99340.69;6341318;22;46986;-60
2022/11/23 04:10:25;;;;;;;;;6.00;6.00;;;;;7.89;66.13;99337.13;6342040;22;45261;-60
2022/11/23 04:12:51;;;;;;;;;6.00;6.00;;;;;7.85;66.32;99349.41;6341648;22;45322;-60
2022/11/23 04:15:17;;;;;;;;;9.75;5.75;;;;;7.89;66.15;99350.19;6342296;22;45203;-60
2022/11/23 04:17:42;;;;;;;;;7.25;4.25;;;;;7.83;66.62;99339.88;6341850;22;46104;-60
2022/11/23 04:20:08;;;;;;;;;8.25;6.50;;;;;7.86;66.66;99342.41;6342065;22;45285;-60
2022/11/23 04:22:33;;;;;;;;;7.50;5.50;;;;;7.85;66.27;99338.94;6340046;22;45166;-60
2022/11/23 04:24:58;;;;;;;;;12.50;9.25;;;;;7.88;66.53;99340.63;6341686;22;45377;-59
2022/11/23 04:27:24;;;;;;;;;9.50;6.50;;;;;7.79;66.62;99319.03;6341713;22;46035;-59
2022/11/23 04:29:49;;;;;;;;;10.75;8.50;;;;;7.84;66.51;99332.00;6340200;22;45585;-60
2022/11/23 04:32:14;;;;;;;;;10.25;7.00;;;;;7.86;66.70;99334.56;6342225;22;45192;-60
2022/11/23 04:34:40;;;;;;;;;8.75;6.50;;;;;7.88;66.72;99341.47;6313799;22;45154;-60
2022/11/23 04:37:05;;;;;;;;;10.50;5.50;;;;;7.84;66.71;99328.53;6342301;22;46226;-60
2022/11/23 04:39:30;;;;;;;;;5.25;5.25;;;;;7.87;66.49;99333.69;6341919;22;45162;-60
2022/11/23 04:41:56;;;;;;;;;6.50;6.00;;;;;7.89;66.90;99326.66;6342209;22;45211;-59
2022/11/23 04:44:21;;;;;;;;;8.75;7.25;;;;;7.90;67.12;99326.63;6341945;22;45077;-60
2022/11/23 04:46:49;;;;;;;;;8.75;5.25;;;;;7.87;66.98;99321.44;6339808;22;47216;-60
2022/11/23 04:49:14;;;;;;;;;7.25;7.25;;;;;7.90;67.09;99324.00;6340812;22;45335;-60
2022/11/23 04:51:39;;;;;;;;;7.25;6.00;;;;;7.81;67.06;99326.81;6342307;22;45168;-60
2022/11/23 04:54:04;;;;;;;;;11.25;7.50;;;;;7.77;67.27;99302.53;6342153;22;45250;-60
2022/11/23 04:56:30;;;;;;;;;8.25;7.25;;;;;7.76;67.46;99307.78;6341847;22;46018;-60
2022/11/23 04:58:55;;;;;;;;;7.25;5.75;;;;;7.81;67.58;99309.41;6341729;22;45252;-60
2022/11/23 05:01:20;;;;;;;;;9.50;5.75;;;;;7.78;67.52;99304.22;6342186;22;45222;-60
2022/11/23 05:03:46;;;;;;;;;10.00;9.00;;;;;7.80;67.61;99301.59;6341834;22;45457;-60
2022/11/23 05:06:12;;;;;;;;;12.00;9.00;;;;;7.83;67.61;99295.44;6341374;22;46160;-59
2022/11/23 05:08:37;;;;;;;;;9.25;5.75;;;;;7.78;67.61;99296.38;6341914;22;45308;-60
2022/11/23 05:11:02;;;;;;;;;7.25;7.25;;;;;7.78;67.73;99304.22;6342286;22;45476;-60
2022/11/23 05:13:28;;;;;;;;;8.25;5.75;;;;;7.84;67.78;99302.38;6342055;22;45179;-60
2022/11/23 05:15:53;;;;;;;;;5.50;2.25;;;;;7.84;67.72;99300.63;6341840;22;45148;-60
2022/11/23 05:18:18;;;;;;;;;9.50;5.25;;;;;7.88;67.91;99296.16;6341379;22;51057;-60
2022/11/23 05:20:45;;;;;;;;;8.50;8.25;;;;;7.93;67.76;99281.19;6342273;22;45142;-60
2022/11/23 05:23:10;;;;;;;;;12.00;7.50;;;;;7.89;67.47;99282.19;6341642;22;45480;-60
2022/11/23 05:25:35;;;;;;;;;7.25;7.25;;;;;7.93;67.65;99292.50;6341866;22;46038;-62
2022/11/23 05:28:01;;;;;;;;;7.25;6.00;;;;;7.94;67.91;99288.16;6339845;22;45202;-60
2022/11/23 05:30:26;;;;;;;;;9.75;6.75;;;;;7.98;67.50;99295.00;6342101;22;45241;-60
2022/11/23 05:32:52;;;;;;;;;12.00;6.75;;;;;8.03;67.86;99293.13;6341778;22;45392;-60
2022/11/23 05:35:17;;;;;;;;;6.50;5.25;;;;;8.06;67.67;99286.97;6341439;22;45906;-60
2022/11/23 05:37:43;;;;;;;;;10.00;9.25;;;;;8.07;67.96;99288.69;6341554;22;45144;-60
2022/11/23 05:40:10;;;;;;;;;7.00;7.00;;;;;8.08;67.99;99291.25;6341495;22;45275;-60
2022/11/23 05:42:35;;;;;;;;;9.75;9.75;;;;;8.16;67.94;99290.19;6341218;22;45199;-60
2022/11/23 05:45:01;;;;;;;;;11.00;11.00;;;;;8.16;68.05;99290.19;6341759;22;45309;-61
2022/11/23 05:47:26;;;;;;;;;7.50;7.00;;;;;8.24;67.97;99286.47;6340216;22;45293;-60
2022/11/23 05:49:52;;;;;;;;;11.00;5.75;;;;;8.21;67.74;99280.44;6341182;22;45305;-60
2022/11/23 05:52:17;;;;;;;;;11.00;6.25;;;;;8.26;67.96;99279.44;6341824;22;45259;-60
2022/11/23 05:54:42;;;;;;;;;8.25;7.50;;;;;8.32;67.91;99285.41;6341668;22;45223;-60
2022/11/23 05:57:08;;;;;;;;;7.25;4.75;;;;;8.36;68.09;99282.63;6341756;22;45288;-60
2022/11/23 05:59:34;;;;;;;;;7.50;5.25;;;;;8.37;67.99;99281.72;6339876;22;45287;-60
2022/11/23 06:02:00;;;;;;;;;5.00;4.25;;;;;8.39;68.27;99277.31;6341569;22;45528;-60
2022/11/23 06:04:25;;;;;;;;;5.50;4.75;;;;;8.45;67.76;99277.16;6341287;22;45167;-60
2022/11/23 06:06:53;;;;;;;;;4.00;4.00;;;;;8.47;67.90;99282.38;6341816;22;45202;-60
2022/11/23 06:09:18;;;;;;;;;9.00;5.50;;;;;8.50;67.87;99281.41;6341443;22;45354;-60
2022/11/23 06:11:44;;;;;;;;;9.00;5.50;;;;;8.52;68.09;99283.09;6341092;22;45306;-60
2022/11/23 06:14:09;;;;;;;;;4.00;3.25;;;;;8.56;67.75;99284.69;6341377;22;45248;-61
2022/11/23 06:16:35;;;;;;;;;4.75;4.25;;;;;8.58;67.97;99276.81;6341571;22;45312;-60
2022/11/23 06:19:00;;;;;;;;;6.50;4.25;;;;;8.61;67.79;99271.50;6341767;22;45325;-60
2022/11/23 06:21:25;;;;;;;;;6.25;4.00;;;;;8.64;68.05;99279.28;6341163;22;45289;-60
2022/11/23 06:23:51;;;;;;;;;7.75;5.25;;;;;8.66;67.73;99276.59;6341657;22;45367;-60
2022/11/23 06:26:16;;;;;;;;;6.25;6.25;;;;;8.67;67.88;99267.84;6341721;22;45322;-60
2022/11/23 06:28:41;;;;;;;;;8.75;7.00;;;;;8.71;67.82;99274.69;6341129;22;45183;-60
2022/11/23 06:31:07;;;;;;;;;4.25;4.00;;;;;8.73;68.03;99268.50;6341491;22;45210;-59
2022/11/23 06:33:33;;;;;;;;;11.00;10.25;;;;;8.78;67.94;99265.75;6341012;22;46176;-60
2022/11/23 06:36:00;;;;;;;;;6.00;5.00;;;;;8.74;67.91;99253.63;6341797;22;45179;-60
2022/11/23 06:38:26;;;;;;;;;9.75;4.75;;;;;8.80;68.02;99258.69;6341025;22;45241;-60
2022/11/23 06:40:52;;;;;;;;;5.25;5.25;;;;;8.83;67.85;99256.00;6341285;22;45441;-60
2022/11/23 06:43:17;;;;;;;;;4.00;4.00;;;;;8.81;67.81;99238.63;6341680;22;45381;-60
2022/11/23 06:45:43;;;;;;;;;5.75;3.00;;;;;8.85;67.97;99251.53;6341724;22;45146;-60
2022/11/23 06:48:09;;;;;;;;;6.25;5.50;;;;;8.86;67.98;99242.78;6341270;22;45278;-60
2022/11/23 06:50:34;;;;;;;;;6.25;4.25;;;;;8.88;67.89;99227.00;6340618;22;45178;-60
2022/11/23 06:53:00;;;;;;;;;6.75;6.75;;;;;8.87;68.00;99231.41;6341319;22;45261;-60
2022/11/23 06:55:26;;;;;;;;;9.50;5.75;;;;;8.87;67.91;99220.09;6341407;22;45198;-59
2022/11/23 06:57:51;;;;;;;;;5.00;4.50;;;;;8.87;67.85;99233.19;6341383;22;45254;-58
2022/11/23 07:00:18;;;;;;;;;6.25;5.00;;;;;8.84;67.47;99225.41;6340906;22;45463;-59
2022/11/23 07:02:49;;;;;;;;;5.25;3.25;;;;;8.88;67.53;99221.78;6340702;22;46134;-59
2022/11/23 07:05:14;;;;;;;;;2.75;2.75;;;;;8.86;68.08;99226.22;6341377;22;45263;-59
2022/11/23 07:07:40;;;;;;;;;3.00;3.00;;;;;8.84;67.50;99220.16;6341365;22;45260;-60
2022/11/23 07:10:06;;;;;;;;;2.25;2.25;;;;;8.85;67.73;99216.66;6341168;22;45204;-60
2022/11/23 07:12:31;;;;;;;;;4.50;3.00;;;;;8.86;67.49;99218.38;6341151;22;45290;-60
2022/11/23 07:14:56;;;;;;;;;4.50;3.75;;;;;8.61;67.47;99167.59;6341226;22;45259;-60
2022/11/23 07:17:21;;;;;;;;;4.00;4.00;;;;;8.90;67.47;99212.13;6341414;22;45241;-60
2022/11/23 07:19:47;;;;;;;;;4.50;4.00;;;;;8.90;67.38;99214.72;6340983;22;45313;-60
2022/11/23 07:22:12;;;;;;;;;5.25;4.00;;;;;8.90;67.79;99212.13;6340940;22;46039;-60
2022/11/23 07:24:37;;;;;;;;;6.75;4.50;;;;;8.91;67.57;99224.31;6341130;22;45176;-60
2022/11/23 07:27:03;;;;;;;;;3.00;3.00;;;;;8.87;67.38;99214.84;6341125;22;45327;-60
2022/11/23 07:29:28;;;;;;;;;4.75;2.50;;;;;8.87;67.41;99230.56;6340853;22;45300;-60
2022/11/23 07:31:53;;;;;;;;;4.50;3.00;;;;;8.90;67.55;99230.44;6340874;22;46030;-60
2022/11/23 07:34:19;;;;;;;;;5.00;4.25;;;;;8.90;67.66;99228.69;6341039;22;45187;-60
2022/11/23 07:36:44;;;;;;;;;5.25;4.00;;;;;8.85;67.51;99219.25;6339315;22;45393;-60
2022/11/23 07:39:10;;;;;;;;;5.75;4.75;;;;;8.85;67.41;99214.88;6340975;22;45499;-60
2022/11/23 07:41:35;;;;;;;;;6.00;6.00;;;;;8.87;67.44;99227.94;6341554;22;46047;-60
2022/11/23 07:44:00;;;;;;;;;4.00;2.75;;;;;8.86;67.35;99231.47;6342289;22;45261;-60
2022/11/23 07:46:26;;;;;;;;;2.75;2.25;;;;;8.87;67.35;99233.19;6342315;22;45147;-60
2022/11/23 07:48:53;;;;;;;;;6.00;4.00;;;;;8.90;67.40;99230.44;6341544;22;45185;-60
2022/11/23 07:51:19;;;;;;;;;7.25;2.25;;;;;8.95;67.37;99233.78;6340462;22;47278;-60
2022/11/23 07:53:44;;;;;;;;;3.50;3.50;;;;;8.93;67.37;99220.75;6342548;22;45184;-60
2022/11/23 07:56:10;;;;;;;;;3.00;2.00;;;;;8.94;67.50;99225.09;6342520;22;45397;-60
2022/11/23 07:58:35;;;;;;;;;1.00;1.00;;;;;8.99;67.41;99224.06;6340051;22;45367;-60
2022/11/23 08:01:00;;;;;;;;;3.00;2.50;;;;;8.99;67.23;99231.94;6341821;22;45404;-60
2022/11/23 08:03:25;;;;;;;;;2.25;2.00;;;;;8.98;67.15;99236.31;6342269;22;45225;-60
2022/11/23 08:05:51;;;;;;;;;3.25;2.00;;;;;8.97;67.21;99229.38;6342546;22;45239;-60
2022/11/23 08:08:16;;;;;;;;;3.75;1.25;;;;;8.97;67.23;99224.13;6342370;22;45246;-60
2022/11/23 08:10:41;;;;;;;;;4.25;2.00;;;;;9.01;67.05;99227.50;6341869;22;45907;-60
2022/11/23 08:13:07;;;;;;;;;2.00;2.00;;;;;9.01;67.43;99245.84;6341836;22;45321;-59
2022/11/23 08:15:33;;;;;;;;;1.00;1.00;;;;;9.00;67.13;99241.50;6342283;22;45808;-59
2022/11/23 08:18:00;;;;;;;;;1.00;1.00;;;;;9.00;67.54;99239.72;6341833;22;45293;-59
2022/11/23 08:20:27;;;;;;;;;3.25;2.00;;;;;8.98;67.54;99233.69;6342091;22;45243;-59
2022/11/23 08:22:54;;;;;;;;;4.00;3.00;;;;;8.95;67.32;99231.16;6341988;22;45151;-59
2022/11/23 08:25:21;;;;;;;;;2.75;2.00;;;;;9.02;67.25;99219.59;6341932;22;45297;-59
2022/11/23 08:27:46;;;;;;;;;2.75;2.75;;;;;9.04;67.39;99225.66;6341910;22;45315;-59
2022/11/23 08:30:12;;;;;;;;;3.25;2.50;;;;;9.03;67.56;99221.31;6341349;22;51550;-59
2022/11/23 08:32:37;;;;;;;;;4.00;3.00;;;;;9.10;67.45;99219.34;6341412;22;45201;-59
2022/11/23 08:35:03;;;;;;;;;3.75;3.75;;;;;9.10;67.17;99207.06;6342517;22;45227;-59
2022/11/23 08:37:28;;;;;;;;;3.50;2.50;;;;;9.16;67.18;99207.81;6340213;22;45493;-59
2022/11/23 08:39:53;;;;;;;;;3.25;2.75;;;;;9.15;67.53;99198.22;6339668;22;46009;-60
2022/11/23 08:42:19;;;;;;;;;2.00;2.00;;;;;9.16;67.61;99206.03;6342075;22;46499;-60
2022/11/23 08:44:44;;;;;;;;;2.75;1.75;;;;;9.16;67.32;99189.47;6341926;22;45173;-60
2022/11/23 08:47:09;;;;;;;;;3.75;2.00;;;;;9.17;67.66;99185.91;6341839;22;48453;-61
2022/11/23 08:49:34;;;;;;;;;2.50;1.25;;;;;9.21;67.43;99169.19;6341304;22;55879;-60
2022/11/23 08:52:00;;;;;;;;;3.00;3.00;;;;;9.26;67.31;99154.16;6339472;22;52434;-60
2022/11/23 08:54:25;;;;;;;;;3.00;1.00;;;;;9.26;67.56;99147.16;6342591;22;45200;-60
2022/11/23 08:56:51;;;;;;;;;3.25;1.75;;;;;9.35;67.33;99148.59;6341942;22;45160;-60
2022/11/23 08:59:17;;;;;;;;;3.75;2.00;;;;;9.38;67.59;99132.78;6341755;22;46028;-60
2022/11/23 09:01:43;;;;;;;;;2.50;2.00;;;;;9.39;67.34;99141.50;6341480;22;45369;-60
2022/11/23 09:04:08;;;;;;;;;2.00;2.00;;;;;9.35;67.03;99135.50;6342245;22;45268;-60
2022/11/23 09:06:34;;;;;;;;;3.00;2.00;;;;;9.38;67.58;99135.41;6342014;22;45403;-60
2022/11/23 09:09:00;;;;;;;;;4.00;2.00;;;;;9.44;67.40;99143.03;6341245;22;46066;-60
2022/11/23 09:11:25;;;;;;;;;2.00;2.00;;;;;9.42;67.41;99147.50;6341691;22;45302;-59
2022/11/23 09:13:51;;;;;;;;;3.00;1.75;;;;;9.47;67.49;99146.47;6341817;22;45274;-60
2022/11/23 09:16:17;;;;;;;;;4.00;3.00;;;;;9.52;67.47;99145.41;6341532;22;45483;-60
2022/11/23 09:18:42;;;;;;;;;0.00;0.00;;;;;9.56;67.08;99146.16;6341009;22;46516;-60
2022/11/23 09:21:09;;;;;;;;;2.00;2.00;;;;;9.56;67.32;99125.19;6339979;22;45478;-60
2022/11/23 09:23:34;;;;;;;;;4.25;2.75;;;;;9.59;67.53;99122.44;6340576;22;45205;-60
2022/11/23 09:26:01;;;;;;;;;3.75;2.00;;;;;9.61;67.42;99128.50;6341463;22;45513;-59
2022/11/23 09:28:28;;;;;;;;;2.00;1.75;;;;;9.65;67.46;99122.22;6341025;22;46294;-59
2022/11/23 09:30:56;;;;;;;;;2.25;2.00;;;;;9.63;67.52;99128.44;6341327;22;45085;-59
2022/11/23 09:33:23;;;;;;;;;3.00;1.50;;;;;9.63;67.55;99121.41;6341365;22;45245;-59
2022/11/23 09:36:03;;;;;;;;;7.75;3.00;;;;;9.67;67.50;99117.78;6341883;22;45175;-60
2022/11/23 09:38:29;;;;;;;;;2.00;2.00;;;;;9.65;67.43;99116.97;6340876;22;45936;-59
2022/11/23 09:41:23;;;;;;;;;6.00;4.75;;;;;9.67;67.55;99120.41;6341439;22;45301;-59
2022/11/23 09:44:04;;;;;;;;;1.75;1.75;;;;;9.69;67.57;99122.97;6341675;22;45260;-59
2022/11/23 09:46:36;;;;;;;;;2.75;2.75;;;;;9.71;67.36;99116.75;6341306;22;45187;-60
2022/11/23 09:49:18;;;;;;;;;2.75;1.75;;;;;9.68;67.74;99123.88;6340932;22;46167;-60
2022/11/23 09:51:45;;;;;;;;;2.00;2.00;;;;;9.69;67.68;99112.47;6341565;22;45357;-60
2022/11/23 09:54:37;;;;;;;;;3.50;2.50;;;;;9.63;68.05;99113.53;6341304;22;45259;-60
2022/11/23 09:57:03;;;;;;;;;4.75;4.00;;;;;9.63;67.69;99105.66;6339994;22;46129;-60
2022/11/23 09:59:28;;;;;;;;;4.25;3.00;;;;;9.63;67.92;99110.91;6341607;22;45989;-60
2022/11/23 10:01:55;;;;;;;;;2.50;2.50;;;;;9.63;67.71;99107.44;6341347;22;45320;-60
2022/11/23 10:04:21;;;;;;;;;4.50;3.75;;;;;9.60;68.02;99114.50;6342214;22;45309;-59
2022/11/23 10:07:12;;;;;;;;;2.00;2.00;;;;;9.59;67.82;99096.19;6341387;22;45373;-60
2022/11/23 10:09:47;;;;;;;;;5.50;3.00;;;;;9.55;68.19;99103.31;6341321;22;46096;-60
2022/11/23 10:12:21;;;;;;;;;2.50;2.50;;;;;9.55;67.88;99111.19;6341420;22;45219;-59
2022/11/23 10:14:52;;;;;;;;;3.50;3.50;;;;;9.57;68.04;99103.25;6341627;22;45258;-59
2022/11/23 10:17:20;;;;;;;;;2.00;2.00;;;;;9.55;68.25;99100.69;6341342;22;45219;-59
2022/11/23 10:20:00;;;;;;;;;2.50;2.50;;;;;9.53;67.99;99099.03;6340760;22;45156;-59
2022/11/23 10:22:39;;;;;;;;;3.00;3.00;;;;;9.50;68.27;99110.50;6341375;22;45199;-59
2022/11/23 10:25:14;;;;;;;;;3.75;2.00;;;;;9.47;68.34;99107.13;6341618;22;45226;-59
2022/11/23 10:27:42;;;;;;;;;3.00;3.00;;;;;9.42;68.28;99121.25;6341418;22;45154;-59
2022/11/23 10:30:16;;;;;;;;;5.00;3.00;;;;;9.36;68.38;99118.84;6341212;22;45109;-59
2022/11/23 10:33:00;;;;;;;;;4.00;3.75;;;;;9.31;68.75;99133.91;6341060;22;45349;-58
2022/11/23 10:35:29;;;;;;;;;2.00;2.00;;;;;9.26;68.70;99123.56;6341506;22;45254;-58
2022/11/23 10:38:25;;;;;;;;;3.00;2.75;;;;;9.24;69.20;99130.63;6341222;22;45491;-58
2022/11/23 10:41:11;;;;;;;;;2.00;1.00;;;;;9.21;68.98;99135.13;6327042;22;46638;-59
2022/11/23 10:43:53;;;;;;;;;5.00;3.00;;;;;9.23;69.29;99138.53;6339405;22;45534;-58
2022/11/23 10:46:30;;;;;;;;;5.00;3.25;;;;;9.09;69.52;99133.75;6341477;22;45368;-58
2022/11/23 10:49:16;;;;;;;;;4.75;3.00;;;;;9.16;69.60;99139.66;6340122;22;45277;-58
2022/11/23 10:51:52;;;;;;;;;5.00;5.00;;;;;9.14;69.73;99129.22;6340566;22;46242;-58
2022/11/23 10:54:59;;;;;;;;;3.25;3.25;;;;;9.07;69.52;99144.31;6341111;22;45293;-59
2022/11/23 10:57:41;;;;;;;;;3.50;3.50;;;;;9.04;69.93;99141.81;6326642;22;45230;-59
2022/11/23 11:00:09;;;;;;;;;2.00;2.00;;;;;9.08;69.93;99140.78;6340478;22;45211;-60
2022/11/23 11:02:40;;;;;;;;;4.25;2.75;;;;;9.03;70.04;99120.88;6340891;22;46169;-59
2022/11/23 11:05:36;;;;;;;;;2.25;2.25;;;;;9.09;70.12;99145.13;6340911;22;45416;-59
2022/11/23 11:08:12;;;;;;;;;3.50;3.50;;;;;9.17;70.25;99154.47;6341517;22;45179;-59
2022/11/23 11:10:40;;;;;;;;;4.00;3.25;;;;;9.09;70.16;99147.75;6341320;22;45352;-60
2022/11/23 11:13:30;;;;;;;;;3.00;3.00;;;;;9.11;70.32;99145.06;6341117;22;45269;-60
2022/11/23 11:16:04;;;;;;;;;6.25;6.00;;;;;9.19;70.52;99148.25;6339183;22;45259;-60
2022/11/23 11:18:36;;;;;;;;;7.75;6.50;;;;;9.18;70.51;99143.06;6339143;22;45222;-61
2022/11/23 11:21:18;;;;;;;;;7.00;5.75;;;;;9.15;70.80;99145.81;6338789;22;45889;-60
2022/11/23 11:23:51;;;;;;;;;7.00;5.00;;;;;9.19;70.68;99139.56;6338546;22;48160;-61
2022/11/23 11:26:22;;;;;;;;;6.00;6.00;;;;;9.25;70.77;99148.06;6340224;22;45282;-60
2022/11/23 11:28:52;;;;;;;;;7.00;5.00;;;;;9.33;70.81;99149.56;6340709;22;45234;-60
2022/11/23 11:31:26;;;;;;;;;6.50;5.50;;;;;9.35;71.03;99161.72;6340914;22;45242;-61
2022/11/23 11:34:02;;;;;;;;;6.00;5.00;;;;;9.36;71.09;99171.28;6338810;22;47224;-60
2022/11/23 11:36:39;;;;;;;;;6.75;6.75;;;;;9.32;70.90;99153.09;6341020;22;45275;-60
2022/11/23 11:39:14;;;;;;;;;7.25;6.00;;;;;9.36;71.33;99166.06;6341033;22;45167;-61
2022/11/23 11:41:43;;;;;;;;;12.00;9.00;;;;;9.39;71.28;99176.41;6338379;22;45187;-60
2022/11/23 11:44:23;;;;;;;;;6.00;6.00;;;;;9.41;71.24;99185.09;6340673;22;46054;-61